Time,TemperatureF,DewpointF,PressureIn,WindDirection,WindDirectionDegrees,WindSpeedMPH,WindSpeedGustMPH,Humidity,HourlyPrecipIn,Conditions,Clouds,dailyrainin,SolarRadiationWatts/m^2,SoftwareType,DateUTC
2013-05-31 00:32:00,55.0,39.0,-100.00,ESE,117,2.0,5.0,54,0.00,,,0.00,0.000000,,2013-05-31 07:32:00,
2013-05-31 00:42:00,55.0,39.0,-100.00,ESE,117,2.0,5.0,54,0.00,,,0.00,0.000000,,2013-05-31 07:42:00,
2013-05-31 00:52:00,55.0,39.0,-100.00,ESE,117,2.0,5.0,54,0.00,,,0.00,0.000000,,2013-05-31 07:52:00,
2013-05-31 01:11:00,55.0,39.0,-100.00,ESE,117,2.0,5.0,54,0.00,,,0.00,0.000000,,2013-05-31 08:11:00,
2013-05-31 01:32:00,54.0,37.0,-100.00,SE,125,2.0,5.0,53,0.00,,,0.00,0.000000,,2013-05-31 08:32:00,
2013-05-31 02:32:00,52.0,35.0,-100.00,ESE,118,3.0,5.0,53,-99.99,,,0.00,0.000000,,2013-05-31 09:32:00,
2013-05-31 03:33:00,52.0,33.0,-100.00,ESE,120,2.0,5.0,48,-99.99,,,0.00,0.000000,,2013-05-31 10:33:00,
2013-05-31 04:32:00,52.0,32.0,-100.00,ESE,119,1.0,6.0,47,-99.99,,,0.00,0.000000,,2013-05-31 11:32:00,
2013-05-31 05:32:00,51.0,30.0,-100.00,ESE,122,1.0,5.0,45,-99.99,,,0.00,0.000000,,2013-05-31 12:32:00,
2013-05-31 06:32:00,54.0,31.0,-100.00,ESE,120,2.0,5.0,42,-99.99,,,0.00,7.000000,,2013-05-31 13:32:00,
2013-05-31 06:42:00,54.0,31.0,-100.00,ESE,120,2.0,5.0,42,-99.99,,,0.00,7.000000,,2013-05-31 13:42:00,
2013-05-31 06:52:00,54.0,31.0,-100.00,ESE,120,2.0,5.0,42,-99.99,,,0.00,7.000000,,2013-05-31 13:52:00,
2013-05-31 07:32:00,61.0,34.0,-100.00,SSE,156,1.0,6.0,36,-99.99,,,0.00,26.000000,,2013-05-31 14:32:00,
2013-05-31 07:42:00,61.0,34.0,-100.00,SSE,156,1.0,6.0,36,-99.99,,,0.00,26.000000,,2013-05-31 14:42:00,
2013-05-31 07:52:00,61.0,34.0,-100.00,SSE,156,1.0,6.0,36,-99.99,,,0.00,26.000000,,2013-05-31 14:52:00,
2013-05-31 08:01:00,61.0,34.0,-100.00,SSE,156,1.0,6.0,36,-99.99,,,0.00,26.000000,,2013-05-31 15:01:00,
2013-05-31 08:11:00,61.0,34.0,-100.00,SSE,156,1.0,6.0,36,-99.99,,,0.00,26.000000,,2013-05-31 15:11:00,
2013-05-31 08:33:00,77.0,40.0,-100.00,NNW,328,0.0,4.0,27,0.00,,,0.00,349.000000,,2013-05-31 15:33:00,
2013-05-31 09:12:00,77.0,40.0,-100.00,NNW,328,0.0,4.0,27,0.00,,,0.00,349.000000,,2013-05-31 16:12:00,
2013-05-31 09:33:00,83.0,32.0,-100.00,NW,319,2.0,7.0,16,0.00,,,0.00,780.000000,,2013-05-31 16:33:00,
2013-05-31 10:42:00,81.0,44.0,-100.00,NW,316,5.0,7.0,27,-99.99,,,-99.99,1018.000000,,2013-05-31 17:42:00,
2013-05-31 10:52:00,81.0,44.0,-100.00,NW,316,5.0,7.0,27,-99.99,,,-99.99,1018.000000,,2013-05-31 17:52:00,
2013-05-31 11:01:00,81.0,44.0,-100.00,NW,316,5.0,7.0,27,-99.99,,,-99.99,1018.000000,,2013-05-31 18:01:00,
2013-05-31 11:11:00,81.0,44.0,-100.00,NW,316,5.0,7.0,27,-99.99,,,-99.99,1018.000000,,2013-05-31 18:11:00,
2013-05-31 11:42:00,82.0,43.0,-100.00,WNW,299,2.0,8.0,25,0.00,,,-99.99,1193.000000,,2013-05-31 18:42:00,
2013-05-31 11:52:00,82.0,43.0,-100.00,WNW,299,2.0,8.0,25,0.00,,,-99.99,1193.000000,,2013-05-31 18:52:00,
2013-05-31 12:01:00,82.0,43.0,-100.00,WNW,299,2.0,8.0,25,0.00,,,-99.99,1193.000000,,2013-05-31 19:01:00,
2013-05-31 12:11:00,82.0,43.0,-100.00,WNW,299,2.0,8.0,25,0.00,,,-99.99,1193.000000,,2013-05-31 19:11:00,
2013-05-31 12:42:00,86.0,44.0,-100.00,North,5,4.0,11.0,23,0.00,,,-99.99,1300.000000,,2013-05-31 19:42:00,
2013-05-31 12:52:00,86.0,44.0,-100.00,North,5,4.0,11.0,23,0.00,,,-99.99,1300.000000,,2013-05-31 19:52:00,
2013-05-31 13:32:00,88.0,47.0,-100.00,WNW,292,4.0,12.0,24,-99.99,,,-99.99,1319.000000,,2013-05-31 20:32:00,
2013-05-31 14:33:00,89.0,45.0,-100.00,NW,325,4.0,18.0,22,-99.99,,,-99.99,1282.000000,,2013-05-31 21:33:00,
2013-05-31 15:33:00,87.0,49.0,-100.00,West,276,3.0,14.0,27,-99.99,,,-99.99,1179.000000,,2013-05-31 22:33:00,
2013-05-31 15:42:00,87.0,49.0,-100.00,West,276,3.0,14.0,27,-99.99,,,-99.99,1179.000000,,2013-05-31 22:42:00,
2013-05-31 16:12:00,87.0,49.0,-100.00,West,276,3.0,14.0,27,-99.99,,,-99.99,1179.000000,,2013-05-31 23:12:00,
2013-05-31 16:32:00,87.0,52.0,-100.00,West,271,2.0,10.0,30,0.00,,,-99.99,1002.000000,,2013-05-31 23:32:00,
2013-05-31 17:32:00,84.0,52.0,-100.00,WNW,292,3.0,9.0,33,-99.99,,,0.00,767.000000,,2013-06-01 00:32:00,
2013-05-31 17:42:00,84.0,52.0,-100.00,WNW,292,3.0,9.0,33,-99.99,,,0.00,767.000000,,2013-06-01 00:42:00,
2013-05-31 17:52:00,84.0,52.0,-100.00,WNW,292,3.0,9.0,33,-99.99,,,0.00,767.000000,,2013-06-01 00:52:00,
2013-05-31 18:01:00,84.0,52.0,-100.00,WNW,292,3.0,9.0,33,-99.99,,,0.00,767.000000,,2013-06-01 01:01:00,
2013-05-31 18:11:00,84.0,52.0,-100.00,WNW,292,3.0,9.0,33,-99.99,,,0.00,767.000000,,2013-06-01 01:11:00,
2013-05-31 18:32:00,77.0,48.0,-100.00,WNW,290,2.0,8.0,36,0.00,,,0.00,496.000000,,2013-06-01 01:32:00,
2013-05-31 18:42:00,77.0,48.0,-100.00,WNW,290,2.0,8.0,36,0.00,,,0.00,496.000000,,2013-06-01 01:42:00,
2013-05-31 18:52:00,77.0,48.0,-100.00,WNW,290,2.0,8.0,36,0.00,,,0.00,496.000000,,2013-06-01 01:52:00,
2013-05-31 19:01:00,77.0,48.0,-100.00,WNW,290,2.0,8.0,36,0.00,,,0.00,496.000000,,2013-06-01 02:01:00,
2013-05-31 19:11:00,77.0,48.0,-100.00,WNW,290,2.0,8.0,36,0.00,,,0.00,496.000000,,2013-06-01 02:11:00,
2013-05-31 19:32:00,72.0,48.0,-100.00,North,349,0.0,5.0,42,0.00,,,0.00,215.000000,,2013-06-01 02:32:00,
2013-05-31 19:42:00,72.0,48.0,-100.00,North,349,0.0,5.0,42,0.00,,,0.00,215.000000,,2013-06-01 02:42:00,
2013-05-31 19:52:00,72.0,48.0,-100.00,North,349,0.0,5.0,42,0.00,,,0.00,215.000000,,2013-06-01 02:52:00,
2013-05-31 20:01:00,72.0,48.0,-100.00,North,349,0.0,5.0,42,0.00,,,0.00,215.000000,,2013-06-01 03:01:00,
2013-05-31 20:11:00,72.0,48.0,-100.00,North,349,0.0,5.0,42,0.00,,,0.00,215.000000,,2013-06-01 03:11:00,
2013-05-31 20:33:00,66.0,47.0,-100.00,NNE,30,0.0,2.0,51,0.00,,,0.00,10.000000,,2013-06-01 03:33:00,
2013-05-31 20:43:00,66.0,47.0,-100.00,NNE,30,0.0,2.0,51,0.00,,,0.00,10.000000,,2013-06-01 03:43:00,
2013-05-31 20:53:00,66.0,47.0,-100.00,NNE,30,0.0,2.0,51,0.00,,,0.00,10.000000,,2013-06-01 03:53:00,
2013-05-31 21:02:00,66.0,47.0,-100.00,NNE,30,0.0,2.0,51,0.00,,,0.00,10.000000,,2013-06-01 04:02:00,
2013-05-31 21:12:00,66.0,47.0,-100.00,NNE,30,0.0,2.0,51,0.00,,,0.00,10.000000,,2013-06-01 04:12:00,
2013-05-31 21:33:00,60.0,45.0,-100.00,ESE,118,1.0,4.0,57,0.00,,,0.00,0.000000,,2013-06-01 04:33:00,
2013-05-31 22:32:00,62.0,40.0,-100.00,SE,126,3.0,5.0,44,-99.99,,,0.00,0.000000,,2013-06-01 05:32:00,
2013-05-31 23:32:00,62.0,37.0,-100.00,ESE,121,4.0,6.0,39,-99.99,,,0.00,0.000000,,2013-06-01 06:32:00,